Latest Weather Observations for Padthaway

IDS60801

Issued at 10:31 am CST Tuesday 3 May 2016 (issued every 30 minutes, with the page automatically refreshed every 10 minutes)

About weather observations | Map of weather stations | Latest weather observations for SA | Other Formats
Station Details ID: 026100 Name: PADTHAWAY SOUTH Lat: -36.65 Lon: 140.52 Height: 37.0 m
Data from the previous 72 hours. | See also: Recent months at Padthaway
Date/Time
CST
Temp
°C
App
Temp
°C
Dew
Point
Rel
Hum
%
Delta-T
°C
Wind Press
QNH
hPa
Press
MSL
hPa
Rain
since 9 am
mm
Dir
 
Spd
km/h
Gust
km/h
Spd
kts
Gust
kts
03/10:30am 16.1 9.5 12.7 80 1.9 W 39 57 21 31 - - 0.2
03/10:06am 16.8 12.3 13.9 83 1.6 WNW 30 48 16 26 - - 0.2
03/10:00am 16.5 11.7 14.0 85 1.4 WNW 32 48 17 26 - - 0.2
03/09:30am 14.4 10.1 13.3 93 0.6 NNW 28 43 15 23 - - 0.0
03/09:03am 14.0 9.7 13.1 94 0.5 NW 28 46 15 25 - - 0.0
03/09:00am 14.0 9.7 13.1 94 0.5 NW 28 39 15 21 - - 2.6
03/08:30am 13.9 10.7 13.0 94 0.5 NW 22 30 12 16 - - 1.4
03/08:00am 13.7 8.7 12.3 91 0.8 NNW 30 41 16 22 - - 0.2
03/07:30am 14.4 9.1 11.4 82 1.6 NNW 30 43 16 23 - - 0.0
03/07:00am 14.9 9.5 10.9 77 2.1 NNW 30 44 16 24 - - 0.0
03/06:50am 15.0 10.0 10.8 76 2.2 NNW 28 46 15 25 - - 0.0
03/06:30am 15.1 10.1 10.9 76 2.2 NNW 28 44 15 24 - - 0.0
03/06:00am 14.5 9.4 10.7 78 2.0 NNW 28 43 15 23 - - 0.0
03/05:30am 14.7 9.6 10.7 77 2.1 NNW 28 43 15 23 - - 0.0
03/05:00am 14.6 9.6 10.8 78 2.0 NNW 28 41 15 22 - - 0.0
03/04:46am 14.4 9.4 11.0 80 1.8 NNW 28 46 15 25 - - 0.0
03/04:30am 14.5 9.5 11.1 80 1.8 NNW 28 43 15 23 - - 0.0
03/04:00am 14.3 9.3 11.1 81 1.7 NNW 28 41 15 22 - - 0.0
03/03:30am 14.1 9.5 10.9 81 1.7 NNW 26 41 14 22 - - 0.0
03/03:00am 14.6 9.6 11.0 79 1.9 NNW 28 43 15 23 - - 0.0
03/02:30am 14.6 9.7 11.2 80 1.8 NNW 28 43 15 23 - - 0.0
03/02:00am 14.4 9.4 11.0 80 1.8 NNW 28 39 15 21 - - 0.0
03/01:30am 14.5 10.0 11.5 82 1.6 NNW 26 35 14 19 - - 0.0
03/01:00am 15.0 10.9 11.4 79 1.9 NNW 24 33 13 18 - - 0.0
03/12:30am 15.2 10.7 11.4 78 2.0 NNW 26 41 14 22 - - 0.0
03/12:00am 15.4 10.1 11.2 76 2.2 NNW 30 41 16 22 - - 0.0
 
Date/Time
CST
Temp
°C
App
Temp
°C
Dew
Point
Rel
Hum
%
Delta-T
°C
Wind Press
QNH
hPa
Press
MSL
hPa
Rain
since 9 am
mm
Dir
 
Spd
km/h
Gust
km/h
Spd
kts
Gust
kts
02/11:30pm 15.9 10.1 10.9 72 2.7 NNW 32 46 17 25 - - 0.0
02/11:00pm 16.3 10.6 11.2 72 2.7 NNW 32 46 17 25 - - 0.0
02/10:30pm 16.0 10.7 11.4 74 2.5 NNW 30 43 16 23 - - 0.0
02/10:00pm 15.7 11.0 10.7 72 2.7 NNW 26 35 14 19 - - 0.0
02/09:30pm 15.4 11.4 10.4 72 2.6 NNW 22 33 12 18 - - 0.0
02/09:00pm 15.0 11.6 11.2 78 2.0 NW 20 26 11 14 - - 0.0
02/08:30pm 14.6 9.8 11.6 82 1.6 NNW 28 39 15 21 - - 0.0
02/08:13pm 15.5 10.5 10.9 74 2.4 NW 28 46 15 25 - - 0.0
02/08:00pm 16.2 11.4 10.3 68 3.1 NNW 26 35 14 19 - - 0.0
02/07:30pm 15.8 12.3 10.8 72 2.7 NNW 20 30 11 16 - - 0.0
02/07:00pm 16.0 11.6 10.5 70 2.9 NNW 24 37 13 20 - - 0.0
02/06:30pm 15.6 11.1 10.2 70 2.8 NNW 24 33 13 18 - - 0.0
02/06:00pm 16.7 11.4 9.9 64 3.6 NNW 28 41 15 22 - - 0.0
02/05:30pm 17.8 11.6 9.2 57 4.5 NW 32 48 17 26 - - 0.0
02/05:00pm 18.2 11.8 8.7 54 4.9 NW 32 48 17 26 - - 0.0
02/04:36pm 18.4 12.3 8.4 52 5.2 NW 30 48 16 26 - - 0.0
02/04:30pm 18.4 13.1 8.4 52 5.2 NNW 26 39 14 21 - - 0.0
02/04:15pm 18.6 12.1 9.1 54 5.0 NW 33 52 18 28 - - 0.0
02/04:00pm 18.7 12.3 8.7 52 5.2 NW 32 44 17 24 - - 0.0
02/03:35pm 19.0 12.5 8.1 49 5.6 NW 32 50 17 27 - - 0.0
02/03:30pm 18.9 12.6 8.8 52 5.3 NW 32 46 17 25 - - 0.0
02/03:00pm 18.6 11.8 7.7 49 5.6 NW 33 48 18 26 - - 0.0
02/02:31pm 19.8 13.3 8.2 47 6.0 NW 32 50 17 27 - - 0.0
02/02:30pm 19.6 12.9 8.0 47 6.0 WNW 33 50 18 27 - - 0.0
02/02:17pm 19.6 12.9 8.3 48 5.9 WNW 33 52 18 28 - - 0.0
02/02:00pm 19.6 12.0 7.7 46 6.1 NW 37 52 20 28 - - 0.0
02/01:30pm 19.1 12.4 7.5 47 5.9 NW 32 50 17 27 - - 0.0
02/01:29pm 19.3 12.7 7.7 47 5.9 NW 32 50 17 27 - - 0.0
02/01:00pm 18.2 11.8 8.7 54 4.9 NW 32 41 17 22 - - 0.0
02/12:38pm 17.6 11.3 9.0 57 4.5 NNW 32 50 17 27 - - 0.0
02/12:30pm 17.4 11.1 8.8 57 4.4 NW 32 46 17 25 - - 0.0
02/12:00pm 17.5 11.0 8.1 54 4.8 NW 32 50 17 27 - - 0.0
02/11:30am 17.2 10.6 7.8 54 4.8 NW 32 50 17 27 - - 0.0
02/11:00am 17.2 10.4 7.5 53 4.9 NW 33 50 18 27 - - 0.0
02/10:37am 17.0 10.4 7.6 54 4.7 NNW 32 50 17 27 - - 0.0
02/10:30am 17.0 10.4 7.6 54 4.7 NW 32 44 17 24 - - 0.0
02/10:00am 16.1 9.8 7.3 56 4.4 NNW 30 43 16 23 - - 0.0
02/09:30am 15.0 8.6 7.1 59 3.9 NNW 30 44 16 24 - - 0.0
02/09:00am 14.0 9.1 7.1 63 3.4 NNW 22 32 12 17 - - 0.6
02/08:30am 13.5 8.3 7.1 65 3.1 NNW 24 37 13 20 - - 0.6
02/08:00am 12.1 8.6 7.0 71 2.4 N 15 22 8 12 - - 0.6
02/07:30am 11.5 7.6 7.2 75 2.1 N 17 26 9 14 - - 0.6
02/07:00am 11.3 6.9 6.6 73 2.2 N 19 26 10 14 - - 0.6
02/06:30am 11.1 7.4 6.5 73 2.2 N 15 22 8 12 - - 0.6
02/06:00am 11.1 7.8 6.6 74 2.1 NNW 13 19 7 10 - - 0.6
02/05:30am 10.8 7.1 6.4 74 2.1 N 15 20 8 11 - - 0.6
02/05:00am 10.8 7.1 6.4 74 2.1 N 15 20 8 11 - - 0.6
02/04:30am 11.1 6.7 6.5 73 2.2 NNW 19 26 10 14 - - 0.6
02/04:00am 11.4 7.0 6.5 72 2.3 NNW 19 30 10 16 - - 0.6
02/03:30am 11.1 7.1 6.5 73 2.2 NNW 17 22 9 12 - - 0.6
02/03:00am 11.3 7.8 7.0 75 2.1 NNW 15 22 8 12 - - 0.6
02/02:30am 11.0 7.0 6.6 74 2.1 NNW 17 20 9 11 - - 0.6
02/02:00am 11.0 7.8 6.9 76 1.9 N 13 17 7 9 - - 0.6
02/01:30am 10.7 7.9 6.8 77 1.8 N 11 15 6 8 - - 0.6
02/01:00am 10.5 8.0 6.6 77 1.8 NNW 9 13 5 7 - - 0.6
02/12:30am 10.3 8.7 6.3 76 1.9 NW 4 9 2 5 - - 0.6
02/12:00am 10.5 7.1 6.1 74 2.0 N 13 17 7 9 - - 0.6
 
Date/Time
CST
Temp
°C
App
Temp
°C
Dew
Point
Rel
Hum
%
Delta-T
°C
Wind Press
QNH
hPa
Press
MSL
hPa
Rain
since 9 am
mm
Dir
 
Spd
km/h
Gust
km/h
Spd
kts
Gust
kts
01/11:30pm 10.1 6.8 6.3 77 1.8 N 13 15 7 8 - - 0.6
01/11:00pm 8.9 5.5 5.8 81 1.4 N 13 13 7 7 - - 0.6
01/10:30pm 7.9 4.5 5.7 86 1.0 N 13 15 7 8 - - 0.6
01/10:00pm 6.7 3.8 4.9 88 0.8 N 9 11 5 6 - - 0.6
01/09:30pm 7.1 4.2 4.9 86 1.0 N 9 11 5 6 - - 0.6
01/09:00pm 7.3 4.1 5.3 87 0.9 N 11 13 6 7 - - 0.6
01/08:30pm 7.7 4.9 5.3 85 1.1 N 9 9 5 5 - - 0.6
01/08:00pm 8.4 5.7 5.5 82 1.3 N 9 11 5 6 - - 0.6
01/07:30pm 9.2 6.5 5.4 77 1.7 N 9 11 5 6 - - 0.6
01/07:00pm 10.2 8.9 5.8 74 2.0 WNW 2 7 1 4 - - 0.6
01/06:30pm 11.1 8.4 5.6 69 2.5 WNW 9 11 5 6 - - 0.6
01/06:00pm 11.8 8.7 5.4 65 3.0 W 11 13 6 7 - - 0.6
01/05:30pm 12.6 9.5 5.5 62 3.3 W 11 15 6 8 - - 0.6
01/05:00pm 14.5 10.9 5.0 53 4.5 W 13 19 7 10 - - 0.6
01/04:30pm 15.5 11.1 4.6 48 5.1 WSW 17 24 9 13 - - 0.6
01/04:00pm 15.7 11.1 3.8 45 5.5 SW 17 26 9 14 - - 0.6
01/03:30pm 15.9 11.1 5.5 50 5.0 WSW 20 28 11 15 - - 0.6
01/03:00pm 15.8 11.6 5.7 51 4.9 W 17 24 9 13 - - 0.6
01/02:30pm 16.0 10.8 5.6 50 5.0 WSW 22 35 12 19 - - 0.6
01/02:00pm 15.4 10.9 6.9 57 4.2 W 20 32 11 17 - - 0.6
01/01:30pm 14.8 10.4 7.6 62 3.6 WSW 20 41 11 22 - - 0.4
01/01:00pm 14.0 8.8 7.3 64 3.3 SW 24 43 13 23 - - 0.4
01/12:30pm 15.1 10.7 7.6 61 3.7 WSW 20 32 11 17 - - 0.4
01/12:00pm 13.9 8.9 8.1 68 2.9 SW 24 39 13 21 - - 0.4
01/11:30am 15.4 10.7 7.9 61 3.8 WSW 22 30 12 16 - - 0.4
01/11:00am 13.8 9.8 9.0 73 2.4 W 20 32 11 17 - - 0.4
01/10:30am 15.5 11.5 8.3 62 3.6 W 19 37 10 20 - - 0.0
01/10:00am 13.8 9.5 8.0 68 2.9 WSW 20 32 11 17 - - 0.0
01/09:30am 13.4 8.7 7.6 68 2.8 WSW 22 33 12 18 - - 0.0
01/09:00am 12.5 6.5 7.0 69 2.6 W 28 44 15 24 - - 3.0
01/08:30am 11.9 7.3 8.0 77 1.9 W 22 30 12 16 - - 3.0
01/08:00am 11.1 8.3 8.7 85 1.2 NW 13 17 7 9 - - 3.0
01/07:30am 9.8 7.3 8.1 89 0.8 NW 11 15 6 8 - - 3.0
01/07:00am 10.1 7.6 8.2 88 0.9 W 11 17 6 9 - - 3.0
01/06:30am 10.1 7.2 8.0 87 1.0 WNW 13 20 7 11 - - 3.0
01/06:00am 10.6 6.7 8.5 87 1.0 W 19 26 10 14 - - 2.8
01/05:30am 10.5 7.3 8.6 88 0.9 WNW 15 22 8 12 - - 2.2
01/05:00am 10.4 7.1 8.2 86 1.1 WNW 15 22 8 12 - - 1.2
01/04:30am 10.8 5.4 8.0 83 1.4 WNW 26 37 14 20 - - 1.2
01/04:00am 11.3 5.9 8.2 81 1.5 WNW 26 35 14 19 - - 1.2
01/03:30am 11.0 6.2 8.8 86 1.1 WNW 24 32 13 17 - - 1.0
01/03:07am 12.9 7.4 9.2 78 1.9 WNW 28 57 15 31 - - 0.2
01/03:00am 13.2 8.6 9.8 80 1.7 NW 24 32 13 17 - - 0.2
01/02:30am 12.9 8.3 9.7 81 1.6 WNW 24 32 13 17 - - 0.2
01/02:00am 13.3 7.1 9.5 78 1.9 WNW 32 43 17 23 - - 0.2
01/01:30am 13.4 9.2 9.8 79 1.9 WNW 22 33 12 18 - - 0.2
01/01:00am 14.0 10.3 9.4 74 2.4 WNW 19 30 10 16 - - 0.2
01/12:30am 14.1 10.1 9.1 72 2.5 WNW 20 32 11 17 - - 0.2
01/12:00am 14.8 7.2 9.0 68 3.0 W 39 65 21 35 - - 0.2
 
Date/Time
CST
Temp
°C
App
Temp
°C
Dew
Point
Rel
Hum
%
Delta-T
°C
Wind Press
QNH
hPa
Press
MSL
hPa
Rain
since 9 am
mm
Dir
 
Spd
km/h
Gust
km/h
Spd
kts
Gust
kts
30/11:41pm 17.1 10.7 10.7 66 3.4 WNW 35 54 19 29 - - 0.2
30/11:30pm 17.4 10.9 10.3 63 3.8 WNW 35 52 19 28 - - 0.2
30/11:00pm 18.0 10.3 8.8 55 4.8 WNW 39 59 21 32 - - 0.2
30/10:30pm 18.5 12.4 9.6 56 4.7 NW 32 50 17 27 - - 0.0
30/10:29pm 18.7 12.5 9.5 55 4.9 NW 32 50 17 27 - - 0.0
30/10:00pm 18.6 14.2 9.1 54 5.0 NW 22 32 12 17 - - 0.0
30/09:42pm 17.6 14.0 10.0 61 4.0 N 19 43 10 23 - - 0.0
30/09:30pm 17.1 14.6 9.8 62 3.8 NNE 13 20 7 11 - - 0.0
30/09:00pm 17.1 13.7 9.3 60 4.1 NW 17 30 9 16 - - 0.0
30/08:30pm 18.2 15.3 6.4 46 5.8 NNE 11 15 6 8 - - 0.0
30/08:00pm 16.4 13.2 6.8 53 4.7 NNE 13 15 7 8 - - 0.0
30/07:30pm 15.9 13.7 7.9 59 4.0 N 9 11 5 6 - - 0.0
30/07:00pm 18.0 15.8 8.0 52 5.1 N 9 11 5 6 - - 0.0
30/06:30pm 19.7 17.5 9.3 51 5.5 WNW 11 15 6 8 - - 0.0
30/06:00pm 21.5 18.7 8.7 44 6.8 N 13 20 7 11 - - 0.0
30/05:30pm 22.5 18.6 8.6 41 7.4 N 19 28 10 15 - - 0.0
30/05:00pm 23.5 19.2 8.0 37 8.2 NNW 20 33 11 18 - - 0.0
30/04:30pm 24.2 19.0 7.4 34 8.8 NNW 24 35 13 19 - - 0.0
30/04:00pm 24.5 19.0 7.6 34 8.9 NNW 26 39 14 21 - - 0.0
30/03:46pm 24.2 18.4 7.8 35 8.7 NNW 28 46 15 25 - - 0.0
30/03:30pm 23.8 17.6 7.8 36 8.4 NNW 30 43 16 23 - - 0.0
30/03:00pm 24.4 18.5 7.5 34 8.9 N 28 44 15 24 - - 0.0
30/02:30pm 24.0 17.5 6.3 32 9.1 NNW 30 41 16 22 - - 0.0
30/02:20pm 23.6 17.5 6.4 33 8.8 NNW 28 46 15 25 - - 0.0
30/02:00pm 24.2 19.1 7.8 35 8.7 NNW 24 33 13 18 - - 0.0
30/01:30pm 24.2 19.6 8.2 36 8.5 NNW 22 35 12 19 - - 0.0
30/01:00pm 23.5 18.4 7.6 36 8.3 NW 24 35 13 19 - - 0.0
30/12:50pm 23.0 17.1 7.5 37 8.1 NW 28 46 15 25 - - 0.0
30/12:30pm 23.0 18.2 7.5 37 8.1 NNW 22 35 12 19 - - 0.0
30/12:00pm 22.5 18.4 8.6 41 7.4 NNW 20 30 11 16 - - 0.0
30/11:30am 21.9 17.2 7.7 40 7.4 NNW 22 32 12 17 - - 0.0
30/11:00am 21.3 16.5 8.9 45 6.6 NNW 24 35 13 19 - - 0.0

Other Formats:

Comma delimited format used in spreadsheet applications
http://www.bom.gov.au/fwo/IDS60801/IDS60801.95823.axf

JavaScript Object Notation format (JSON) in row-major order
http://www.bom.gov.au/fwo/IDS60801/IDS60801.95823.json